Time;durP1;ratioP1;P1;durP2;ratioP2;P2;SDS_P1;SDS_P2;PMS_P1;PMS_P2;Temp;Humidity;BMP_temperature;BMP_pressure;BME280_temperature;BME280_humidity;BME280_pressure;Samples;Min_cycle;Max_cycle;Signal;HPM_P1;HPM_P2
2022/04/16 00:00:08;;;;;;;15.23;8.85;;;14.00;99.90;;;;;;4970691;28;20081;-86
2022/04/16 00:02:34;;;;;;;13.02;7.22;;;13.90;99.90;;;;;;4971938;28;20077;-84
2022/04/16 00:05:00;;;;;;;11.10;7.72;;;14.20;99.90;;;;;;4970717;28;20023;-85
2022/04/16 00:07:29;;;;;;;12.75;8.63;;;14.40;99.90;;;;;;4971607;28;20030;-84
2022/04/16 00:09:55;;;;;;;13.77;9.68;;;14.40;99.90;;;;;;4967565;28;20074;-85
2022/04/16 00:12:21;;;;;;;11.32;8.60;;;14.40;99.90;;;;;;4955453;28;20473;-84
2022/04/16 00:14:46;;;;;;;12.15;7.63;;;14.40;99.90;;;;;;4949458;28;20111;-85
2022/04/16 00:17:13;;;;;;;13.75;8.13;;;14.40;99.90;;;;;;4970809;28;20081;-84
2022/04/16 00:19:43;;;;;;;12.25;8.63;;;14.50;99.90;;;;;;4949312;28;20434;-85
2022/04/16 00:22:26;;;;;;;8.68;7.00;;;14.40;99.90;;;;;;4973084;28;20061;-85
2022/04/16 00:25:19;;;;;;;11.95;6.55;;;14.30;99.90;;;;;;4950059;28;20054;-84
2022/04/16 00:27:56;;;;;;;15.55;6.60;;;14.20;99.90;;;;;;4936098;28;20298;-86
2022/04/16 00:30:22;;;;;;;11.55;7.72;;;14.20;99.90;;;;;;4970285;28;20050;-85
2022/04/16 00:33:28;;;;;;;;;;;;;;;;;;;;;
2022/04/16 00:35:55;;;;;;;11.77;9.70;;;13.90;99.90;;;;;;4972223;28;20595;-85
2022/04/16 00:38:21;;;;;;;16.20;9.88;;;13.80;99.90;;;;;;4970793;28;20035;-85
2022/04/16 00:40:52;;;;;;;12.93;8.93;;;13.60;99.90;;;;;;4972377;28;20101;-84
2022/04/16 00:43:29;;;;;;;12.95;8.38;;;13.50;99.90;;;;;;4949766;28;20125;-84
2022/04/16 00:46:08;;;;;;;9.98;8.90;;;13.40;99.90;;;;;;4966903;28;20089;-86
2022/04/16 00:49:00;;;;;;;12.75;9.98;;;13.30;99.90;;;;;;4967876;28;20035;-86
2022/04/16 00:51:52;;;;;;;9.50;7.82;;;13.20;99.90;;;;;;4969385;28;20047;-85
2022/04/16 00:54:19;;;;;;;10.83;7.57;;;13.10;99.90;;;;;;4966083;28;20031;-84
2022/04/16 00:56:47;;;;;;;10.55;7.68;;;13.10;99.90;;;;;;4953345;28;20286;-84
2022/04/16 00:59:21;;;;;;;7.97;6.45;;;13.10;99.90;;;;;;4947744;28;20133;-84
2022/04/16 01:01:47;;;;;;;7.03;5.57;;;13.10;99.90;;;;;;4971662;28;20113;-83
2022/04/16 01:04:32;;;;;;;10.80;5.43;;;13.30;99.90;;;;;;4968742;28;20063;-85
2022/04/16 01:07:36;;;;;;;7.55;5.40;;;13.50;99.90;;;;;;4954110;28;20031;-84
2022/04/16 01:10:02;;;;;;;10.38;5.15;;;13.70;99.90;;;;;;4868743;29;20588;-84
2022/04/16 01:12:34;;;;;;;8.02;5.95;;;13.70;99.90;;;;;;4934912;28;20031;-84
2022/04/16 01:15:00;;;;;;;7.63;5.82;;;13.80;99.90;;;;;;4965441;28;20077;-84
2022/04/16 01:17:26;;;;;;;7.85;5.20;;;13.90;99.90;;;;;;4970189;28;20035;-83
2022/04/16 01:19:52;;;;;;;9.60;5.65;;;13.90;99.90;;;;;;4955916;28;20054;-85
2022/04/16 01:22:20;;;;;;;9.05;5.90;;;13.90;99.90;;;;;;4955294;28;20061;-85
2022/04/16 01:24:49;;;;;;;11.50;5.82;;;13.90;99.90;;;;;;4972700;28;20023;-84
2022/04/16 01:27:18;;;;;;;6.00;4.95;;;13.90;99.90;;;;;;4971538;28;20035;-84
2022/04/16 01:29:44;;;;;;;8.00;4.90;;;14.00;99.90;;;;;;4959551;28;20022;-85
2022/04/16 01:32:13;;;;;;;5.68;4.88;;;14.00;99.90;;;;;;4972628;28;20126;-84
2022/04/16 01:34:40;;;;;;;8.38;5.65;;;14.10;99.90;;;;;;4973125;28;20081;-83
2022/04/16 01:37:35;;;;;;;;;;;;;;;;;;;;;
2022/04/16 01:40:03;;;;;;;11.27;4.95;;;14.00;99.90;;;;;;4957937;28;20034;-83
2022/04/16 01:42:29;;;;;;;18.08;5.35;;;14.10;99.90;;;;;;4969659;28;20018;-85
2022/04/16 01:45:02;;;;;;;8.68;4.90;;;14.10;99.90;;;;;;4972762;28;20034;-84
2022/04/16 01:47:42;;;;;;;6.13;5.18;;;14.10;99.90;;;;;;4970248;28;20506;-85
2022/04/16 01:50:12;;;;;;;6.80;4.80;;;14.10;99.90;;;;;;4940843;28;20049;-85
2022/04/16 01:52:40;;;;;;;7.63;5.10;;;14.10;99.90;;;;;;4955465;28;20505;-85
2022/04/16 01:55:17;;;;;;;7.00;5.30;;;14.20;99.90;;;;;;4972755;28;20109;-85
2022/04/16 01:57:43;;;;;;;7.57;4.97;;;14.20;99.90;;;;;;4955223;28;20077;-85
2022/04/16 02:00:14;;;;;;;8.65;5.03;;;14.30;99.90;;;;;;4972312;28;20458;-87
2022/04/16 02:02:40;;;;;;;9.73;5.32;;;14.50;99.90;;;;;;4955221;28;20027;-85
2022/04/16 02:05:12;;;;;;;8.38;5.18;;;14.70;99.90;;;;;;4955292;28;20050;-85
2022/04/16 02:07:39;;;;;;;8.77;4.97;;;14.70;99.90;;;;;;4955055;28;20027;-85
2022/04/16 02:10:06;;;;;;;10.23;4.97;;;14.60;99.90;;;;;;4972180;28;20106;-85
2022/04/16 02:12:31;;;;;;;7.30;4.82;;;14.70;99.90;;;;;;4955126;28;20437;-85
2022/04/16 02:14:57;;;;;;;5.75;4.60;;;14.90;99.90;;;;;;4956890;28;20027;-84
2022/04/16 02:17:35;;;;;;;7.45;4.45;;;15.00;99.90;;;;;;4972127;28;20053;-84
2022/04/16 02:20:00;;;;;;;9.05;4.90;;;15.10;99.90;;;;;;4959144;28;20442;-85
2022/04/16 02:23:12;;;;;;;7.38;4.90;;;15.00;99.90;;;;;;4972119;28;20019;-84
2022/04/16 02:25:41;;;;;;;8.25;5.22;;;15.00;99.90;;;;;;4924715;28;20038;-84
2022/04/16 02:28:10;;;;;;;7.10;5.28;;;15.00;99.90;;;;;;4970671;28;20019;-85
2022/04/16 02:30:37;;;;;;;16.42;5.90;;;15.00;99.90;;;;;;4971411;28;20073;-85
2022/04/16 02:33:03;;;;;;;8.70;5.30;;;14.90;99.90;;;;;;4954740;28;20500;-85
2022/04/16 02:35:29;;;;;;;10.68;4.70;;;15.10;99.90;;;;;;4972025;28;20074;-86
2022/04/16 02:37:56;;;;;;;8.77;5.07;;;15.30;99.90;;;;;;4955038;28;20043;-84
2022/04/16 02:40:23;;;;;;;8.63;5.13;;;15.50;99.90;;;;;;4972401;28;20081;-84
2022/04/16 02:42:48;;;;;;;6.70;4.47;;;15.60;99.90;;;;;;4971925;28;20076;-84
2022/04/16 02:48:04;;;;;;;6.55;4.50;;;15.60;99.90;;;;;;4972045;28;20525;-84
2022/04/16 02:50:31;;;;;;;8.80;5.43;;;15.70;99.90;;;;;;4971733;28;20482;-84
2022/04/16 02:52:58;;;;;;;8.32;5.50;;;15.60;99.90;;;;;;4971774;28;20030;-84
2022/04/16 02:55:24;;;;;;;12.50;6.00;;;15.60;99.90;;;;;;4971998;28;20065;-84
2022/04/16 02:57:53;;;;;;;7.43;5.50;;;15.60;99.90;;;;;;4971131;28;20034;-85
2022/04/16 03:00:20;;;;;;;9.05;6.00;;;15.50;99.90;;;;;;4962193;28;20050;-86
2022/04/16 03:02:55;;;;;;;8.98;6.15;;;15.50;99.90;;;;;;4971791;28;20504;-84
2022/04/16 03:05:24;;;;;;;8.25;6.07;;;15.40;99.90;;;;;;4972005;28;20039;-85
2022/04/16 03:07:50;;;;;;;10.90;6.68;;;15.40;99.90;;;;;;4971947;28;20637;-85
2022/04/16 03:10:16;;;;;;;13.88;6.53;;;15.30;99.90;;;;;;4971843;28;20070;-86
2022/04/16 03:12:46;;;;;;;8.32;5.50;;;15.30;99.90;;;;;;4954488;28;20441;-89
2022/04/16 03:17:59;;;;;;;11.20;5.72;;;15.30;99.90;;;;;;4972101;28;20608;-86
2022/04/16 03:20:34;;;;;;;12.07;6.05;;;15.30;99.90;;;;;;4971368;28;20042;-85
2022/04/16 03:23:02;;;;;;;10.02;5.45;;;15.20;99.90;;;;;;4972037;28;20019;-86
2022/04/16 03:25:28;;;;;;;9.52;5.70;;;15.20;99.90;;;;;;4971476;28;20030;-85
2022/04/16 03:27:54;;;;;;;9.32;5.65;;;15.20;99.90;;;;;;4969770;28;20034;-85
2022/04/16 03:30:20;;;;;;;7.75;4.88;;;15.10;99.90;;;;;;4947634;28;20031;-85
2022/04/16 03:32:49;;;;;;;8.38;5.13;;;15.10;99.90;;;;;;4975375;28;20037;-85
2022/04/16 03:35:18;;;;;;;12.68;5.50;;;15.10;99.90;;;;;;4957836;28;20026;-85
2022/04/16 03:37:44;;;;;;;13.18;5.38;;;15.10;99.90;;;;;;4957839;28;20066;-85
2022/04/16 03:40:10;;;;;;;9.55;5.15;;;15.10;99.90;;;;;;4975467;28;20065;-87
2022/04/16 03:42:58;;;;;;;11.80;4.88;;;15.10;99.90;;;;;;4974629;28;20053;-87
2022/04/16 03:45:30;;;;;;;10.45;5.47;;;15.10;99.90;;;;;;4975295;28;20033;-88
2022/04/16 03:47:59;;;;;;;13.97;5.67;;;15.00;99.90;;;;;;4969989;28;20039;-90
2022/04/16 03:50:26;;;;;;;15.45;5.60;;;15.00;99.90;;;;;;4975293;28;20066;-87
2022/04/16 03:52:53;;;;;;;7.35;5.32;;;15.00;99.90;;;;;;4974034;28;20908;-86
2022/04/16 04:00:51;;;;;;;9.95;5.60;;;15.00;99.90;;;;;;4974602;28;20434;-88
2022/04/16 04:03:20;;;;;;;9.68;6.03;;;15.00;99.90;;;;;;4975191;28;20138;-86
2022/04/16 04:05:48;;;;;;;10.40;6.60;;;15.00;99.90;;;;;;4974938;28;20034;-85
2022/04/16 04:08:18;;;;;;;12.20;7.00;;;14.90;99.90;;;;;;4957720;28;20442;-87
2022/04/16 04:10:45;;;;;;;8.48;6.40;;;14.90;99.90;;;;;;4956722;28;20506;-88
2022/04/16 04:13:11;;;;;;;9.00;6.30;;;14.80;99.90;;;;;;4973113;28;20030;-88
2022/04/16 04:15:37;;;;;;;8.70;5.95;;;14.80;99.90;;;;;;4974665;28;20039;-88
2022/04/16 04:18:03;;;;;;;9.85;5.95;;;14.80;99.90;;;;;;4957893;28;20034;-88
2022/04/16 04:20:29;;;;;;;8.50;5.95;;;14.80;99.90;;;;;;4974224;28;20031;-88
2022/04/16 04:22:56;;;;;;;11.52;6.10;;;14.70;99.90;;;;;;4957509;28;20037;-88
2022/04/16 04:25:23;;;;;;;7.93;6.05;;;14.70;99.90;;;;;;4957244;28;20027;-88
2022/04/16 04:27:49;;;;;;;15.70;7.18;;;14.70;99.90;;;;;;4974261;28;20105;-87
2022/04/16 04:30:15;;;;;;;9.13;6.00;;;14.70;99.90;;;;;;4965610;28;20109;-86
2022/04/16 04:32:41;;;;;;;13.00;7.13;;;14.70;99.90;;;;;;4974148;28;20042;-84
2022/04/16 04:35:09;;;;;;;8.10;6.25;;;14.60;99.90;;;;;;4974295;28;20031;-86
2022/04/16 04:37:35;;;;;;;9.77;6.57;;;14.60;99.90;;;;;;4973702;28;20058;-86
2022/04/16 04:40:01;;;;;;;10.20;6.10;;;14.50;99.90;;;;;;4974307;28;20102;-85
2022/04/16 04:42:29;;;;;;;8.52;6.53;;;14.50;99.90;;;;;;4973193;28;20031;-85
2022/04/16 04:44:55;;;;;;;9.35;6.47;;;14.50;99.90;;;;;;4974190;28;20042;-85
2022/04/16 04:47:21;;;;;;;10.48;6.35;;;14.50;99.90;;;;;;4967547;28;20595;-85
2022/04/16 04:49:47;;;;;;;7.18;5.80;;;14.50;99.90;;;;;;4974125;28;20027;-85
2022/04/16 04:52:29;;;;;;;7.40;6.10;;;14.50;99.90;;;;;;4971773;28;20041;-85
2022/04/16 04:54:55;;;;;;;6.38;4.85;;;14.50;99.90;;;;;;4973946;28;20023;-85
2022/04/16 04:57:21;;;;;;;6.10;4.75;;;14.40;99.90;;;;;;4963718;28;20031;-86
2022/04/16 04:59:47;;;;;;;7.15;4.47;;;14.50;99.90;;;;;;4973759;28;20093;-86
2022/04/16 05:02:15;;;;;;;8.05;4.93;;;14.50;99.90;;;;;;4973816;28;20026;-87
2022/04/16 05:04:42;;;;;;;8.15;4.80;;;14.70;99.90;;;;;;4974033;28;20084;-85
2022/04/16 05:07:08;;;;;;;6.85;4.78;;;14.70;99.90;;;;;;4969721;28;20054;-86
2022/04/16 05:09:34;;;;;;;7.90;4.68;;;14.80;99.90;;;;;;4969546;28;20019;-86
2022/04/16 05:12:00;;;;;;;21.27;4.45;;;14.80;99.90;;;;;;4973352;28;20482;-85
2022/04/16 05:14:26;;;;;;;4.85;4.30;;;14.80;99.90;;;;;;4956783;28;20026;-86
2022/04/16 05:16:51;;;;;;;5.38;4.05;;;14.90;99.90;;;;;;4955543;28;20030;-86
2022/04/16 05:19:17;;;;;;;8.10;3.80;;;14.90;99.90;;;;;;4973982;28;20031;-86
2022/04/16 05:21:43;;;;;;;5.20;4.10;;;14.90;99.90;;;;;;4955503;28;20560;-87
2022/04/16 05:24:10;;;;;;;7.80;3.97;;;15.00;99.90;;;;;;4973719;28;20033;-87
2022/04/16 05:26:38;;;;;;;5.18;3.85;;;15.00;99.90;;;;;;4972513;28;20106;-86
2022/04/16 05:29:06;;;;;;;6.30;3.83;;;15.10;99.90;;;;;;4961101;28;20034;-86
2022/04/16 05:31:33;;;;;;;4.32;3.55;;;15.20;99.90;;;;;;4969781;28;20046;-87
2022/04/16 05:36:44;;;;;;;5.32;3.67;;;15.30;99.90;;;;;;4976762;28;20048;-87
2022/04/16 05:39:09;;;;;;;11.30;4.00;;;15.30;99.90;;;;;;4956943;28;20033;-85
2022/04/16 05:41:36;;;;;;;5.65;3.50;;;15.40;99.90;;;;;;4955007;28;20120;-85
2022/04/16 05:44:03;;;;;;;6.00;3.60;;;15.50;99.90;;;;;;4962243;28;20031;-90
2022/04/16 05:46:28;;;;;;;3.83;3.05;;;15.50;99.90;;;;;;4977491;28;20058;-92
2022/04/16 05:49:04;;;;;;;5.82;3.25;;;15.60;99.90;;;;;;4976791;28;20030;-93
2022/04/16 05:51:30;;;;;;;4.93;3.35;;;15.60;99.90;;;;;;4977041;28;20034;-92
2022/04/16 05:53:56;;;;;;;4.93;3.13;;;15.60;99.90;;;;;;4980235;28;20030;-93
2022/04/16 05:56:29;;;;;;;5.40;2.75;;;15.70;99.90;;;;;;4978322;28;20031;-93
2022/04/16 05:58:55;;;;;;;4.82;3.10;;;15.80;99.90;;;;;;4976889;28;20122;-91
2022/04/16 06:01:21;;;;;;;3.80;3.05;;;15.80;99.90;;;;;;4976768;28;20026;-89
2022/04/16 06:03:47;;;;;;;3.67;3.33;;;15.90;99.90;;;;;;4976829;28;20095;-90
2022/04/16 06:06:12;;;;;;;3.53;3.00;;;15.90;99.90;;;;;;4977899;28;20037;-91
2022/04/16 06:08:38;;;;;;;4.75;2.97;;;15.90;99.90;;;;;;4978957;28;20475;-90
2022/04/16 06:11:04;;;;;;;5.22;3.10;;;16.00;99.90;;;;;;4975783;28;20379;-93
2022/04/16 06:13:30;;;;;;;4.00;3.17;;;16.00;99.90;;;;;;4978619;28;20027;-89
2022/04/16 06:15:59;;;;;;;3.65;2.85;;;16.00;99.90;;;;;;4976435;28;20049;-91
2022/04/16 06:18:26;;;;;;;7.72;3.40;;;16.00;99.90;;;;;;4947502;29;20031;-93
2022/04/16 06:20:51;;;;;;;5.68;3.10;;;16.10;99.90;;;;;;4969255;28;20070;-93
2022/04/16 06:23:20;;;;;;;3.20;2.90;;;16.10;99.90;;;;;;4965603;28;20049;-91
2022/04/16 06:25:46;;;;;;;4.40;2.83;;;16.20;99.90;;;;;;4961427;28;20039;-91
2022/04/16 06:28:12;;;;;;;5.35;3.05;;;16.20;99.90;;;;;;4962285;28;20019;-90
2022/04/16 06:30:38;;;;;;;5.03;3.13;;;16.30;99.90;;;;;;4961542;28;20049;-87
2022/04/16 06:33:04;;;;;;;3.88;3.05;;;16.20;99.90;;;;;;4981314;28;20494;-87
2022/04/16 06:35:29;;;;;;;7.22;3.22;;;16.30;99.90;;;;;;4956817;28;20390;-85
2022/04/16 06:37:55;;;;;;;3.72;3.13;;;16.40;99.90;;;;;;4974628;28;20081;-92
2022/04/16 06:40:21;;;;;;;3.30;2.85;;;16.30;99.90;;;;;;4942706;29;20031;-89
2022/04/16 06:42:48;;;;;;;4.85;3.30;;;16.40;99.90;;;;;;4978414;28;20031;-84
2022/04/16 06:45:14;;;;;;;5.78;3.42;;;16.40;99.90;;;;;;4975643;28;20026;-88
2022/04/16 06:47:40;;;;;;;3.45;3.15;;;16.50;99.90;;;;;;4958331;28;20502;-83
2022/04/16 06:50:07;;;;;;;3.50;3.20;;;16.60;99.90;;;;;;4974125;28;20038;-87
2022/04/16 06:52:34;;;;;;;4.40;3.15;;;16.70;99.90;;;;;;4954970;28;20430;-84
2022/04/16 06:55:00;;;;;;;4.03;3.45;;;16.70;99.90;;;;;;4955570;28;20030;-85
2022/04/16 06:57:26;;;;;;;5.43;3.65;;;16.70;99.90;;;;;;4972370;28;20031;-87
2022/04/16 06:59:52;;;;;;;4.22;3.47;;;16.70;99.90;;;;;;4972367;28;20051;-88
2022/04/16 07:02:18;;;;;;;4.78;3.80;;;16.70;99.90;;;;;;4955050;28;20058;-87
2022/04/16 07:04:44;;;;;;;3.38;2.92;;;16.70;99.90;;;;;;4955548;28;20513;-86
2022/04/16 07:07:10;;;;;;;4.60;3.70;;;16.70;99.90;;;;;;4957916;28;20114;-87
2022/04/16 07:09:39;;;;;;;4.80;3.53;;;16.80;99.90;;;;;;4957320;28;20122;-85
2022/04/16 07:12:10;;;;;;;4.70;3.25;;;16.80;99.90;;;;;;4956216;28;20457;-86
2022/04/16 07:14:37;;;;;;;5.18;3.10;;;16.80;99.90;;;;;;4957099;28;20035;-86
2022/04/16 07:17:03;;;;;;;4.10;3.35;;;16.80;99.90;;;;;;4974380;28;20426;-87
2022/04/16 07:19:30;;;;;;;5.10;3.22;;;16.80;99.90;;;;;;4957823;28;20117;-86
2022/04/16 07:21:59;;;;;;;4.10;3.22;;;16.80;99.90;;;;;;4975765;28;20019;-85
2022/04/16 07:24:25;;;;;;;4.13;3.15;;;16.80;99.90;;;;;;4958835;28;20499;-87
2022/04/16 07:26:57;;;;;;;3.60;2.70;;;16.90;99.90;;;;;;4975102;28;20066;-86
2022/04/16 07:29:24;;;;;;;3.50;3.20;;;17.00;99.90;;;;;;4958519;28;20042;-87
2022/04/16 07:31:50;;;;;;;5.72;3.10;;;17.00;99.90;;;;;;4956994;28;20405;-86
2022/04/16 07:34:17;;;;;;;8.85;3.53;;;17.00;99.90;;;;;;4975979;28;20023;-85
2022/04/16 07:36:44;;;;;;;3.50;3.20;;;17.00;99.90;;;;;;4957993;28;20486;-85
2022/04/16 07:39:11;;;;;;;4.50;3.13;;;17.00;99.90;;;;;;4975563;28;20054;-87
2022/04/16 07:41:37;;;;;;;8.20;3.08;;;17.10;99.90;;;;;;4957651;28;20027;-86
2022/04/16 07:44:03;;;;;;;4.40;3.33;;;17.20;99.90;;;;;;4958191;28;20077;-86
2022/04/16 07:46:30;;;;;;;3.85;2.80;;;17.20;99.90;;;;;;4976302;28;20034;-87
2022/04/16 07:48:57;;;;;;;3.65;3.05;;;17.20;99.90;;;;;;4958432;28;20041;-87
2022/04/16 07:51:24;;;;;;;3.83;3.00;;;17.30;99.90;;;;;;4957580;28;20043;-86
2022/04/16 07:53:56;;;;;;;4.43;2.45;;;17.30;99.90;;;;;;4975129;28;20483;-85
2022/04/16 07:56:22;;;;;;;3.55;3.03;;;17.40;99.90;;;;;;4958717;28;20043;-85
2022/04/16 07:58:49;;;;;;;3.83;2.80;;;17.60;99.90;;;;;;4976172;28;20045;-86
2022/04/16 08:01:15;;;;;;;3.33;2.72;;;17.60;99.90;;;;;;4958074;28;20042;-85
2022/04/16 08:03:43;;;;;;;3.40;2.90;;;17.60;99.90;;;;;;4958307;28;20026;-86
2022/04/16 08:06:09;;;;;;;4.35;2.80;;;17.70;99.90;;;;;;4975096;28;20101;-87
2022/04/16 08:08:35;;;;;;;4.18;2.85;;;17.70;99.90;;;;;;4975373;28;20113;-87
2022/04/16 08:11:01;;;;;;;3.90;2.97;;;17.60;99.90;;;;;;4974616;28;20478;-86
2022/04/16 08:13:27;;;;;;;2.97;2.45;;;17.70;99.90;;;;;;4957502;28;20045;-88
2022/04/16 08:15:53;;;;;;;6.55;2.83;;;17.70;99.90;;;;;;4974058;28;20022;-86
2022/04/16 08:18:18;;;;;;;4.55;2.58;;;17.80;99.90;;;;;;4957527;28;20533;-86
2022/04/16 08:20:53;;;;;;;3.92;2.72;;;17.80;99.90;;;;;;4974194;28;20027;-86
2022/04/16 08:23:26;;;;;;;2.80;2.50;;;17.80;99.90;;;;;;4974838;28;20030;-87
2022/04/16 08:25:52;;;;;;;4.32;2.13;;;17.90;99.90;;;;;;4974797;28;20023;-85
2022/04/16 08:28:18;;;;;;;2.40;2.20;;;17.90;99.90;;;;;;4957614;28;20022;-87
2022/04/16 08:30:44;;;;;;;6.28;2.40;;;18.00;99.90;;;;;;4956882;28;20395;-87
2022/04/16 08:33:14;;;;;;;2.53;2.25;;;18.10;99.90;;;;;;4957617;28;20030;-85
2022/04/16 08:35:42;;;;;;;5.38;2.35;;;18.10;99.90;;;;;;4974168;28;20482;-88
2022/04/16 08:38:09;;;;;;;7.15;2.33;;;18.10;99.90;;;;;;4955792;28;20097;-86
2022/04/16 08:40:34;;;;;;;2.67;2.33;;;18.10;99.90;;;;;;4956786;28;20023;-84
2022/04/16 08:43:01;;;;;;;2.20;2.00;;;18.20;99.90;;;;;;4957553;28;20031;-86
2022/04/16 08:45:33;;;;;;;4.43;1.88;;;18.20;99.90;;;;;;4974515;28;20023;-87
2022/04/16 08:47:59;;;;;;;4.18;2.05;;;18.20;99.90;;;;;;4973986;28;20022;-87
2022/04/16 08:50:25;;;;;;;5.95;2.50;;;18.40;99.90;;;;;;4973853;28;20105;-87
2022/04/16 08:52:51;;;;;;;2.17;1.90;;;18.40;99.90;;;;;;4956481;28;20031;-86
2022/04/16 08:55:19;;;;;;;2.65;2.00;;;18.40;99.90;;;;;;4957822;28;20050;-86
2022/04/16 08:57:45;;;;;;;2.50;2.15;;;18.60;99.90;;;;;;4956284;28;20181;-86
2022/04/16 09:00:14;;;;;;;2.08;1.83;;;18.60;99.90;;;;;;4974698;28;20057;-86
2022/04/16 09:02:54;;;;;;;3.05;1.88;;;18.70;99.90;;;;;;4951871;28;20031;-87
2022/04/16 09:05:20;;;;;;;2.92;1.90;;;18.70;99.90;;;;;;4965861;28;20114;-87
2022/04/16 09:07:56;;;;;;;3.33;2.03;;;18.70;99.90;;;;;;4973901;28;20073;-87
2022/04/16 09:10:26;;;;;;;2.38;1.70;;;18.80;99.90;;;;;;4964833;28;20486;-86
2022/04/16 09:12:54;;;;;;;2.55;2.03;;;18.80;99.90;;;;;;4973904;28;20130;-87
2022/04/16 09:15:21;;;;;;;2.78;1.60;;;18.80;99.90;;;;;;4952433;28;20043;-87
2022/04/16 09:18:04;;;;;;;6.25;2.05;;;18.80;99.90;;;;;;4974076;28;20030;-86
2022/04/16 09:20:38;;;;;;;2.28;1.83;;;18.80;99.90;;;;;;4955661;28;20398;-87
2022/04/16 09:23:16;;;;;;;2.78;1.90;;;18.80;99.90;;;;;;4956644;28;20078;-86
2022/04/16 09:25:43;;;;;;;5.40;2.00;;;18.90;99.90;;;;;;4954926;28;20093;-91
2022/04/16 09:28:11;;;;;;;2.05;1.83;;;18.90;99.90;;;;;;4959414;28;20030;-83
2022/04/16 09:30:48;;;;;;;3.35;2.10;;;18.80;99.90;;;;;;4970791;28;20098;-88
2022/04/16 09:33:14;;;;;;;4.10;2.10;;;18.60;99.90;;;;;;4974467;28;20023;-90
2022/04/16 09:35:40;;;;;;;3.72;2.00;;;18.50;99.90;;;;;;4957610;28;20039;-90
2022/04/16 09:38:10;;;;;;;4.75;2.10;;;18.70;99.90;;;;;;4958375;28;20121;-81
2022/04/16 09:40:36;;;;;;;2.63;1.80;;;18.80;99.90;;;;;;4972735;28;20031;-81
2022/04/16 09:43:08;;;;;;;6.60;2.00;;;18.80;99.90;;;;;;4973265;28;20490;-82
2022/04/16 09:45:37;;;;;;;2.60;1.87;;;18.70;99.90;;;;;;4972945;28;20581;-82
2022/04/16 09:48:07;;;;;;;2.33;1.60;;;18.80;99.90;;;;;;4972915;28;20046;-82
2022/04/16 09:50:33;;;;;;;3.10;1.90;;;18.80;99.90;;;;;;4972410;28;20066;-82
2022/04/16 09:53:04;;;;;;;2.92;2.10;;;18.90;99.90;;;;;;4973192;28;20034;-82
2022/04/16 09:55:29;;;;;;;2.58;2.00;;;19.00;99.90;;;;;;4955051;28;20402;-82
2022/04/16 09:58:06;;;;;;;5.13;1.95;;;19.10;99.90;;;;;;4971878;28;20027;-82
2022/04/16 10:00:33;;;;;;;2.42;1.75;;;19.10;99.90;;;;;;4963330;28;20106;-81
2022/04/16 10:03:07;;;;;;;4.43;2.30;;;19.20;99.90;;;;;;4972690;28;20113;-82
2022/04/16 10:05:33;;;;;;;4.93;1.98;;;19.10;99.90;;;;;;4972291;28;20442;-87
2022/04/16 10:07:59;;;;;;;2.30;1.75;;;18.90;99.90;;;;;;4971774;28;20028;-83
2022/04/16 10:10:30;;;;;;;3.15;1.85;;;18.90;99.90;;;;;;4972087;28;20457;-83
2022/04/16 10:13:05;;;;;;;5.57;2.05;;;18.90;99.90;;;;;;4970553;28;20113;-83
2022/04/16 10:16:04;;;;;;;3.58;1.80;;;19.10;99.90;;;;;;4954518;28;20085;-83
2022/04/16 10:18:33;;;;;;;3.15;1.80;;;19.30;99.90;;;;;;4969145;28;20023;-83
2022/04/16 10:21:00;;;;;;;4.28;1.83;;;19.10;99.90;;;;;;4972349;28;20046;-82
2022/04/16 10:23:30;;;;;;;2.35;2.00;;;19.30;99.90;;;;;;4972979;28;20470;-84
2022/04/16 10:26:04;;;;;;;3.50;1.95;;;19.60;99.90;;;;;;4953950;28;20401;-83
2022/04/16 10:28:37;;;;;;;2.67;1.60;;;19.60;99.90;;;;;;4972492;28;20035;-84
2022/04/16 10:31:03;;;;;;;5.03;1.85;;;19.40;99.90;;;;;;4972124;28;20056;-83
2022/04/16 10:33:28;;;;;;;3.55;1.77;;;19.50;99.90;;;;;;4972257;28;20019;-86
2022/04/16 10:36:09;;;;;;;5.78;2.03;;;19.50;99.90;;;;;;4954614;28;20118;-83
2022/04/16 10:38:43;;;;;;;3.10;1.90;;;19.50;99.90;;;;;;4969360;28;20022;-84
2022/04/16 10:41:21;;;;;;;3.92;1.90;;;19.50;99.90;;;;;;4954313;28;20019;-82
2022/04/16 10:44:02;;;;;;;6.22;1.90;;;19.60;99.90;;;;;;4971554;28;20030;-83
2022/04/16 10:46:47;;;;;;;1.92;1.70;;;19.50;99.90;;;;;;4971423;28;20508;-88
2022/04/16 10:49:14;;;;;;;3.67;2.03;;;19.70;99.90;;;;;;4973255;28;20031;-85
2022/04/16 10:51:40;;;;;;;3.15;1.88;;;19.70;99.90;;;;;;4973926;28;20035;-83
2022/04/16 10:54:10;;;;;;;4.72;2.13;;;19.80;99.90;;;;;;4978610;28;20086;-82
2022/04/16 10:56:39;;;;;;;4.03;2.10;;;19.80;99.90;;;;;;4977650;28;20035;-80
2022/04/16 10:59:07;;;;;;;4.05;1.40;;;19.90;99.90;;;;;;4966781;28;20126;-86
2022/04/16 11:01:34;;;;;;;4.35;1.63;;;20.20;99.90;;;;;;4969059;28;20030;-83
2022/04/16 11:04:10;;;;;;;2.42;2.05;;;20.30;99.90;;;;;;4971951;28;20121;-81
2022/04/16 11:06:36;;;;;;;4.57;1.77;;;20.20;99.90;;;;;;4971351;28;20035;-80
2022/04/16 11:09:02;;;;;;;12.05;2.22;;;20.10;99.90;;;;;;4976621;28;20395;-84
2022/04/16 11:11:28;;;;;;;2.08;1.60;;;20.20;99.90;;;;;;4971961;28;20035;-83
2022/04/16 11:13:56;;;;;;;1.88;1.73;;;20.50;99.90;;;;;;4974230;28;20031;-91
2022/04/16 11:16:22;;;;;;;1.55;1.45;;;20.70;99.90;;;;;;4954863;29;20398;-85
2022/04/16 11:18:49;;;;;;;30.55;1.83;;;20.90;99.90;;;;;;4958579;28;20026;-82
2022/04/16 11:21:18;;;;;;;2.45;1.52;;;20.90;98.40;;;;;;4972223;28;20069;-85
2022/04/16 11:23:46;;;;;;;2.95;1.70;;;20.90;98.00;;;;;;4953430;28;20393;-85
2022/04/16 11:34:42;;;;;;;1.50;1.40;;;20.60;96.00;;;;;;4973351;28;20062;-89
2022/04/16 11:37:08;;;;;;;4.95;1.55;;;20.80;96.70;;;;;;4970931;28;20059;-82
2022/04/16 11:39:37;;;;;;;4.70;1.60;;;20.90;94.90;;;;;;4968852;28;20034;-84
2022/04/16 11:42:07;;;;;;;9.25;1.85;;;21.00;94.50;;;;;;4971291;28;20054;-83
2022/04/16 11:44:44;;;;;;;14.85;2.05;;;21.20;95.50;;;;;;4971218;28;20081;-83
2022/04/16 11:47:09;;;;;;;2.25;1.50;;;21.30;94.00;;;;;;4953608;28;20386;-85
2022/04/16 11:50:00;;;;;;;2.90;1.58;;;20.90;92.50;;;;;;4970862;28;20094;-83
2022/04/16 11:52:28;;;;;;;3.08;1.42;;;20.90;92.30;;;;;;4974748;28;20038;-83
2022/04/16 11:55:08;;;;;;;5.57;1.52;;;20.90;92.60;;;;;;4974480;28;20023;-83
2022/04/16 11:57:34;;;;;;;2.25;1.52;;;21.10;93.30;;;;;;4973307;28;20390;-83
2022/04/16 12:00:04;;;;;;;2.03;1.52;;;21.20;93.50;;;;;;4965642;28;20064;-83
2022/04/16 12:02:34;;;;;;;2.05;1.60;;;21.20;94.10;;;;;;4972109;28;20425;-84
2022/04/16 12:05:11;;;;;;;2.42;1.60;;;21.50;92.70;;;;;;4959605;28;20019;-85
2022/04/16 12:07:40;;;;;;;2.25;1.60;;;22.10;90.60;;;;;;4955784;28;20059;-83
2022/04/16 12:10:06;;;;;;;1.23;1.13;;;24.20;88.40;;;;;;4957212;28;20089;-83
2022/04/16 12:12:48;;;;;;;1.58;1.40;;;26.40;81.00;;;;;;4957392;28;20030;-83
2022/04/16 12:15:20;;;;;;;1.42;1.33;;;28.40;78.20;;;;;;4961012;28;20031;-83
2022/04/16 12:17:46;;;;;;;;;;;28.40;73.10;;;;;;4957746;28;20120;-84
2022/04/16 12:20:12;;;;;;;4.88;1.30;;;29.50;69.40;;;;;;4957112;28;19941;-82
2022/04/16 12:22:55;;;;;;;2.22;1.55;;;30.30;67.10;;;;;;4974480;28;20031;-84
2022/04/16 12:25:23;;;;;;;1.90;1.42;;;30.10;62.40;;;;;;4974469;28;20629;-83
2022/04/16 12:27:53;;;;;;;2.28;1.38;;;30.50;61.50;;;;;;4956019;28;20187;-83
2022/04/16 12:30:28;;;;;;;2.10;1.25;;;30.50;60.70;;;;;;4948080;28;20043;-84
2022/04/16 12:32:58;;;;;;;1.52;1.30;;;30.00;59.50;;;;;;4959046;28;20035;-86
2022/04/16 12:35:26;;;;;;;3.50;1.33;;;30.40;59.90;;;;;;4978298;28;20029;-86
2022/04/16 12:37:54;;;;;;;5.05;1.42;;;31.90;58.90;;;;;;4957467;28;20035;-87
2022/04/16 12:40:21;;;;;;;2.72;1.60;;;34.20;56.20;;;;;;4957921;28;20035;-86
2022/04/16 12:42:51;;;;;;;3.88;1.30;;;35.90;53.70;;;;;;4974610;28;20030;-85
2022/04/16 12:45:17;;;;;;;2.67;1.38;;;36.20;53.20;;;;;;4974403;28;20023;-85
2022/04/16 12:47:43;;;;;;;1.35;1.25;;;38.00;51.60;;;;;;4974153;28;20097;-85
2022/04/16 12:50:10;;;;;;;1.15;1.00;;;39.00;51.20;;;;;;4973884;28;20037;-84
2022/04/16 12:52:36;;;;;;;1.23;1.13;;;40.40;47.60;;;;;;4974014;28;20042;-86
2022/04/16 12:55:02;;;;;;;1.20;1.10;;;40.30;46.50;;;;;;4974001;28;20022;-81
2022/04/16 12:57:28;;;;;;;2.28;1.27;;;39.80;46.40;;;;;;4970799;28;20035;-87
2022/04/16 12:59:54;;;;;;;1.20;1.10;;;39.70;45.40;;;;;;4971964;28;20043;-86
2022/04/16 13:02:20;;;;;;;3.15;1.20;;;38.20;45.10;;;;;;4956436;28;20029;-86
2022/04/16 13:04:46;;;;;;;4.32;1.88;;;36.60;46.30;;;;;;4973949;28;20501;-84
2022/04/16 13:07:11;;;;;;;1.63;1.40;;;36.20;45.90;;;;;;4974108;28;20142;-84
2022/04/16 13:09:37;;;;;;;1.50;1.00;;;35.60;45.90;;;;;;4974388;28;20073;-87
2022/04/16 13:12:03;;;;;;;1.05;0.95;;;36.60;44.80;;;;;;4978582;28;20035;-89
2022/04/16 13:14:29;;;;;;;5.03;1.30;;;35.90;45.00;;;;;;4958911;28;20247;-86
2022/04/16 13:16:55;;;;;;;1.48;1.15;;;36.10;44.80;;;;;;4957452;28;20559;-86
2022/04/16 13:19:22;;;;;;;0.98;0.90;;;35.30;44.90;;;;;;4958522;28;20054;-87